createdAt,value
2022-09-20T00:00:21.938Z,99084.22
2022-09-20T00:01:26.584Z,99087.72
2022-09-20T00:02:28.066Z,99086.44
2022-09-20T00:03:29.575Z,99084.78
2022-09-20T00:04:31.032Z,99080.63
2022-09-20T00:05:34.559Z,99087.16
2022-09-20T00:06:36.092Z,99090.06
2022-09-20T00:07:37.494Z,99083.66
2022-09-20T00:08:39.291Z,99089.38
2022-09-20T00:09:40.712Z,99080.63
2022-09-20T00:10:42.777Z,99082.16
2022-09-20T00:11:44.123Z,99083.94
2022-09-20T00:12:45.547Z,99084.78
2022-09-20T00:13:47.863Z,99082.69
2022-09-20T00:14:49.301Z,99083.22
2022-09-20T00:15:50.626Z,99087.63
2022-09-20T00:16:52.126Z,99095.09
2022-09-20T00:17:53.624Z,99093.56
2022-09-20T00:18:56.674Z,99098.66
2022-09-20T00:19:58.136Z,99093.94
2022-09-20T00:20:59.607Z,99092.41
2022-09-20T00:22:01.020Z,99098.94
2022-09-20T00:23:02.345Z,99095.34
2022-09-20T00:24:04.174Z,99087.16
2022-09-20T00:25:06.242Z,99089.69
2022-09-20T00:26:07.656Z,99094.53
2022-09-20T00:27:09.012Z,99095.06
2022-09-20T00:28:11.039Z,99091.22
2022-09-20T00:29:12.443Z,99085.56
2022-09-20T00:30:13.856Z,99092.88
2022-09-20T00:31:15.787Z,99094.19
2022-09-20T00:32:17.324Z,99089.47
2022-09-20T00:33:19.316Z,99086.97
2022-09-20T00:34:20.743Z,99089.75
2022-09-20T00:35:22.095Z,99085.69
2022-09-20T00:36:23.935Z,99093.97
2022-09-20T00:37:25.511Z,99089.84
2022-09-20T00:38:26.915Z,99086.66
2022-09-20T00:39:28.252Z,99094.81
2022-09-20T00:40:29.837Z,99092.31
2022-09-20T00:41:32.149Z,99098.94
2022-09-20T00:42:33.653Z,99097.53
2022-09-20T00:43:46.328Z,99096.84
2022-09-20T00:44:56.102Z,99094.84
2022-09-20T00:45:57.882Z,99092.50
2022-09-20T00:47:00.849Z,99096.09
2022-09-20T00:48:13.563Z,99096.63
2022-09-20T00:49:23.959Z,99099.00
2022-09-20T00:50:43.799Z,99099.31
2022-09-20T00:51:49.429Z,99094.03
2022-09-20T00:52:57.984Z,99090.03
2022-09-20T00:54:04.180Z,99091.13
2022-09-20T00:55:08.078Z,99094.44
2022-09-20T00:56:32.315Z,99100.13
2022-09-20T00:57:34.552Z,99101.38
2022-09-20T00:58:42.937Z,99093.09
2022-09-20T00:59:48.361Z,99098.91
2022-09-20T01:00:53.422Z,99101.38
2022-09-20T01:02:01.307Z,99097.25
2022-09-20T01:03:08.123Z,99097.47
2022-09-20T01:04:11.288Z,99095.47
2022-09-20T01:05:14.667Z,99093.88
2022-09-20T01:06:17.063Z,99097.28
2022-09-20T01:07:22.139Z,99094.59
2022-09-20T01:08:23.775Z,99093.69
2022-09-20T01:09:25.186Z,99100.88
2022-09-20T01:10:26.714Z,99095.88
2022-09-20T01:11:30.031Z,99108.16
2022-09-20T01:12:33.725Z,99091.25
2022-09-20T01:13:35.136Z,99100.78
2022-09-20T01:14:36.557Z,99099.84
2022-09-20T01:15:39.399Z,99102.59
2022-09-20T01:16:41.291Z,99097.22
2022-09-20T01:17:47.403Z,99103.09
2022-09-20T01:18:49.866Z,99100.84
2022-09-20T01:20:10.553Z,99100.84
2022-09-20T01:21:13.075Z,99097.16
2022-09-20T01:22:27.447Z,99089.59
2022-09-20T01:24:02.531Z,99092.03
2022-09-20T01:25:11.866Z,99091.97
2022-09-20T01:26:44.283Z,99086.78
2022-09-20T01:27:50.750Z,99089.28
2022-09-20T01:29:07.452Z,99083.06
2022-09-20T01:30:21.567Z,99089.00
2022-09-20T01:31:26.563Z,99085.41
2022-09-20T01:32:52.313Z,99085.31
2022-09-20T01:34:04.159Z,99082.66
2022-09-20T01:35:08.165Z,99086.13
2022-09-20T01:36:13.133Z,99083.50
2022-09-20T01:37:33.645Z,99081.56
2022-09-20T01:39:03.364Z,99087.78
2022-09-20T01:40:28.109Z,99096.50
2022-09-20T01:41:40.886Z,99093.03
2022-09-20T01:43:05.780Z,99093.41
2022-09-20T01:44:25.499Z,99096.44
2022-09-20T01:45:29.278Z,99091.41
2022-09-20T01:46:35.959Z,99090.50
2022-09-20T01:48:08.322Z,99093.69
2022-09-20T01:49:09.638Z,99089.28
2022-09-20T01:50:33.354Z,99091.47
2022-09-20T01:52:05.922Z,99094.03
2022-09-20T01:53:38.311Z,99098.38
2022-09-20T01:54:39.617Z,99097.66
2022-09-20T01:56:10.671Z,99093.13
2022-09-20T01:57:17.861Z,99098.38
2022-09-20T01:59:01.883Z,99089.53
2022-09-20T02:00:44.170Z,99092.16
2022-09-20T02:02:08.948Z,99089.16
2022-09-20T02:03:36.356Z,99090.81
2022-09-20T02:04:43.825Z,99089.16
2022-09-20T02:05:54.261Z,99090.13
2022-09-20T02:07:22.372Z,99090.56
2022-09-20T02:08:35.950Z,99094.84
2022-09-20T02:10:14.636Z,99093.50
2022-09-20T02:11:19.457Z,99100.03
2022-09-20T02:12:50.821Z,99093.72
2022-09-20T02:14:19.327Z,99090.66
2022-09-20T02:15:39.336Z,99102.72
2022-09-20T02:16:48.380Z,99103.41
2022-09-20T02:17:58.914Z,99094.72
2022-09-20T02:19:27.468Z,99099.00
2022-09-20T02:20:51.782Z,99100.34
2022-09-20T02:22:19.302Z,99100.41
2022-09-20T02:23:56.840Z,99101.25
2022-09-20T02:25:28.913Z,99108.16
2022-09-20T02:26:54.654Z,99102.34
2022-09-20T02:28:25.890Z,99109.34
2022-09-20T02:30:11.615Z,99110.00
2022-09-20T02:31:28.472Z,99112.41
2022-09-20T02:33:09.756Z,99113.94
2022-09-20T02:34:44.184Z,99111.31
2022-09-20T02:36:00.450Z,99115.03
2022-09-20T02:37:04.763Z,99118.38
2022-09-20T02:38:25.483Z,99117.28
2022-09-20T02:39:42.937Z,99118.38
2022-09-20T02:41:07.684Z,99117.53
2022-09-20T02:42:23.684Z,99122.78
2022-09-20T02:43:29.587Z,99117.72
2022-09-20T02:44:46.300Z,99121.88
2022-09-20T02:46:11.623Z,99119.53
2022-09-20T02:47:43.645Z,99125.75
2022-09-20T02:49:12.399Z,99118.47
2022-09-20T02:50:40.909Z,99120.47
2022-09-20T02:51:51.571Z,99115.50
2022-09-20T02:53:26.321Z,99129.31
2022-09-20T02:54:43.007Z,99124.06
2022-09-20T02:56:00.587Z,99125.97
2022-09-20T02:57:28.572Z,99122.28
2022-09-20T02:58:38.396Z,99120.63
2022-09-20T03:00:24.456Z,99128.09
2022-09-20T03:01:54.583Z,99125.13
2022-09-20T03:03:02.142Z,99127.88
2022-09-20T03:04:40.538Z,99127.59
2022-09-20T03:06:01.377Z,99125.44
2022-09-20T03:07:12.703Z,99130.09
2022-09-20T03:08:50.765Z,99127.09
2022-09-20T03:10:07.408Z,99128.41
2022-09-20T03:11:39.206Z,99129.75
2022-09-20T03:12:55.130Z,99129.88
2022-09-20T03:14:11.604Z,99128.66
2022-09-20T03:15:27.315Z,99126.97
2022-09-20T03:16:28.706Z,99128.66
2022-09-20T03:17:48.175Z,99132.13
2022-09-20T03:19:12.624Z,99129.69
2022-09-20T03:20:32.091Z,99129.44
2022-09-20T03:21:59.838Z,99127.97
2022-09-20T03:23:36.203Z,99132.50
2022-09-20T03:24:54.758Z,99128.63
2022-09-20T03:26:20.441Z,99132.66
2022-09-20T03:27:31.293Z,99133.50
2022-09-20T03:29:08.658Z,99130.84
2022-09-20T03:30:42.285Z,99128.41
2022-09-20T03:31:57.883Z,99138.41
2022-09-20T03:33:15.925Z,99134.88
2022-09-20T03:34:48.684Z,99135.06
2022-09-20T03:35:55.852Z,99126.69
2022-09-20T03:37:16.866Z,99127.00
2022-09-20T03:38:21.177Z,99129.06
2022-09-20T03:39:47.546Z,99129.53
2022-09-20T03:41:21.158Z,99123.75
2022-09-20T03:42:29.159Z,99127.06
2022-09-20T03:43:58.086Z,99125.00
2022-09-20T03:45:19.732Z,99127.38
2022-09-20T03:46:27.867Z,99121.88
2022-09-20T03:48:02.483Z,99125.03
2022-09-20T03:49:41.259Z,99131.25
2022-09-20T03:51:09.198Z,99126.28
2022-09-20T03:52:10.548Z,99127.94
2022-09-20T03:53:30.004Z,99133.91
2022-09-20T03:55:02.171Z,99136.53
2022-09-20T03:56:29.798Z,99131.41
2022-09-20T03:57:52.802Z,99135.81
2022-09-20T03:59:25.695Z,99138.19
2022-09-20T04:00:44.349Z,99133.06
2022-09-20T04:02:18.309Z,99133.66
2022-09-20T04:03:33.358Z,99132.53
2022-09-20T04:04:58.810Z,99137.09
2022-09-20T04:06:57.258Z,99140.31
2022-09-20T04:08:17.695Z,99138.63
2022-09-20T04:09:47.403Z,99143.59
2022-09-20T04:11:25.588Z,99145.22
2022-09-20T04:12:55.136Z,99147.84
2022-09-20T04:14:16.242Z,99150.06
2022-09-20T04:15:31.027Z,99150.81
2022-09-20T04:16:37.805Z,99142.56
2022-09-20T04:17:52.041Z,99149.34
2022-09-20T04:19:08.761Z,99142.66
2022-09-20T04:20:32.083Z,99146.09
2022-09-20T04:21:55.670Z,99150.38
2022-09-20T04:23:02.258Z,99145.72
2022-09-20T04:24:21.133Z,99146.16
2022-09-20T04:25:29.890Z,99152.69
2022-09-20T04:26:36.615Z,99152.41
2022-09-20T04:27:53.847Z,99153.81
2022-09-20T04:29:02.759Z,99156.44
2022-09-20T04:30:10.402Z,99152.03
2022-09-20T04:31:54.225Z,99151.78
2022-09-20T04:32:58.693Z,99157.16
2022-09-20T04:34:04.476Z,99156.78
2022-09-20T04:35:21.202Z,99161.47
2022-09-20T04:36:31.555Z,99154.16
2022-09-20T04:37:36.378Z,99156.59
2022-09-20T04:38:38.307Z,99153.13
2022-09-20T04:39:54.547Z,99159.53
2022-09-20T04:41:26.481Z,99159.47
2022-09-20T04:42:59.897Z,99162.16
2022-09-20T04:44:36.520Z,99160.59
2022-09-20T04:46:06.676Z,99160.22
2022-09-20T04:47:23.172Z,99158.59
2022-09-20T04:48:42.345Z,99158.22
2022-09-20T04:50:06.839Z,99148.16
2022-09-20T04:51:29.964Z,99153.72
2022-09-20T04:52:59.507Z,99161.22
2022-09-20T04:54:34.788Z,99158.16
2022-09-20T04:55:49.817Z,99167.59
2022-09-20T04:57:22.187Z,99166.34
2022-09-20T04:58:33.953Z,99165.25
2022-09-20T04:59:47.657Z,99165.94
2022-09-20T05:01:13.996Z,99168.34
2022-09-20T05:02:40.229Z,99160.28
2022-09-20T05:04:19.125Z,99164.50
2022-09-20T05:05:43.440Z,99168.66
2022-09-20T05:07:22.508Z,99168.50
2022-09-20T05:08:35.771Z,99166.56
2022-09-20T05:10:10.250Z,99175.03
2022-09-20T05:12:08.510Z,99167.84
2022-09-20T05:13:28.435Z,99166.88
2022-09-20T05:14:54.664Z,99163.56
2022-09-20T05:16:03.357Z,99167.72
2022-09-20T05:17:24.476Z,99163.44
2022-09-20T05:18:50.105Z,99170.75
2022-09-20T05:20:41.235Z,99169.94
2022-09-20T05:22:09.602Z,99166.84
2022-09-20T05:23:35.243Z,99169.63
2022-09-20T05:24:51.439Z,99174.47
2022-09-20T05:26:06.727Z,99175.19
2022-09-20T05:27:24.759Z,99175.19
2022-09-20T05:28:56.134Z,99182.94
2022-09-20T05:30:25.387Z,99181.72
2022-09-20T05:31:37.716Z,99183.50
2022-09-20T05:32:55.952Z,99182.81
2022-09-20T05:34:27.001Z,99180.00
2022-09-20T05:35:53.807Z,99182.31
2022-09-20T05:37:00.386Z,99182.00
2022-09-20T05:39:45.434Z,99181.88
2022-09-20T05:41:08.472Z,99179.25
2022-09-20T05:42:19.367Z,99189.88
2022-09-20T05:43:55.459Z,99184.63
2022-09-20T05:44:56.815Z,99183.53
2022-09-20T05:46:07.200Z,99189.06
2022-09-20T05:47:32.703Z,99180.75
2022-09-20T05:48:44.408Z,99192.47
2022-09-20T05:49:55.950Z,99187.91
2022-09-20T05:51:07.191Z,99189.03
2022-09-20T05:52:46.168Z,99192.25
2022-09-20T05:54:00.787Z,99193.50
2022-09-20T05:55:17.996Z,99186.81
2022-09-20T05:56:39.849Z,99191.69
2022-09-20T05:58:21.089Z,99195.47
2022-09-20T05:59:37.278Z,99200.44
2022-09-20T06:00:48.641Z,99197.69
2022-09-20T06:01:53.171Z,99197.94
2022-09-20T06:03:18.730Z,99202.50
2022-09-20T06:04:27.614Z,99201.13
2022-09-20T06:06:03.255Z,99212.09
2022-09-20T06:07:21.230Z,99207.78
2022-09-20T06:08:28.782Z,99207.78
2022-09-20T06:09:43.714Z,99203.91
2022-09-20T06:11:00.118Z,99211.38
2022-09-20T06:12:21.876Z,99198.50
2022-09-20T06:13:36.275Z,99209.97
2022-09-20T06:14:53.983Z,99207.34
2022-09-20T06:16:06.578Z,99207.66
2022-09-20T06:17:36.143Z,99211.53
2022-09-20T06:18:46.747Z,99223.47
2022-09-20T06:20:16.293Z,99214.59
2022-09-20T06:21:45.325Z,99215.13
2022-09-20T06:22:50.853Z,99214.59
2022-09-20T06:23:58.639Z,99215.03
2022-09-20T06:25:10.815Z,99222.38
2022-09-20T06:26:19.924Z,99217.97
2022-09-20T06:27:28.268Z,99216.97
2022-09-20T06:28:34.097Z,99223.47
2022-09-20T06:29:40.456Z,99218.19
2022-09-20T06:30:52.783Z,99222.19
2022-09-20T06:31:54.241Z,99220.94
2022-09-20T06:33:14.196Z,99216.34
2022-09-20T06:34:15.860Z,99215.94
2022-09-20T06:35:17.497Z,99221.78
2022-09-20T06:36:26.188Z,99228.03
2022-09-20T06:37:50.352Z,99222.09
2022-09-20T06:39:03.674Z,99220.41
2022-09-20T06:40:31.454Z,99226.50
2022-09-20T06:41:36.358Z,99224.72
2022-09-20T06:42:39.487Z,99222.06
2022-09-20T06:43:40.847Z,99223.56
2022-09-20T06:44:42.243Z,99221.78
2022-09-20T06:45:43.639Z,99219.28
2022-09-20T06:46:45.091Z,99222.06
2022-09-20T06:47:46.507Z,99227.75
2022-09-20T06:48:47.845Z,99224.41
2022-09-20T06:49:49.643Z,99230.50
2022-09-20T06:50:51.903Z,99228.72
2022-09-20T06:51:53.363Z,99219.72
2022-09-20T06:52:54.787Z,99229.31
2022-09-20T06:53:56.928Z,99226.97
2022-09-20T06:54:58.606Z,99235.03
2022-09-20T06:56:01.106Z,99222.66
2022-09-20T06:57:06.623Z,99224.22
2022-09-20T06:58:08.088Z,99224.50
2022-09-20T06:59:09.512Z,99221.56
2022-09-20T07:00:13.302Z,99223.81
2022-09-20T07:01:20.004Z,99232.66
2022-09-20T07:02:30.669Z,99227.69
2022-09-20T07:03:32.074Z,99227.25
2022-09-20T07:04:33.555Z,99233.94
2022-09-20T07:05:34.970Z,99236.78
2022-09-20T07:06:36.393Z,99234.72
2022-09-20T07:07:37.749Z,99238.44
2022-09-20T07:08:39.198Z,99240.81
2022-09-20T07:09:40.535Z,99237.75
2022-09-20T07:10:42.044Z,99242.34
2022-09-20T07:11:43.471Z,99246.06
2022-09-20T07:12:44.810Z,99239.84
2022-09-20T07:13:51.048Z,99242.91
2022-09-20T07:14:52.659Z,99242.28
2022-09-20T07:16:00.503Z,99248.81
2022-09-20T07:17:01.907Z,99242.28
2022-09-20T07:18:03.267Z,99247.56
2022-09-20T07:19:04.716Z,99249.09
2022-09-20T07:20:06.273Z,99251.31
2022-09-20T07:21:15.741Z,99245.09
2022-09-20T07:22:17.178Z,99248.53
2022-09-20T07:23:18.515Z,99251.72
2022-09-20T07:24:19.958Z,99253.50
2022-09-20T07:25:21.767Z,99254.63
2022-09-20T07:26:28.474Z,99259.81
2022-09-20T07:27:29.993Z,99260.22
2022-09-20T07:28:33.806Z,99259.69
2022-09-20T07:29:35.271Z,99267.00
2022-09-20T07:30:36.711Z,99261.19
2022-09-20T07:31:38.061Z,99263.56
2022-09-20T07:32:39.668Z,99264.97
2022-09-20T07:33:41.118Z,99266.91
2022-09-20T07:34:42.446Z,99261.38
2022-09-20T07:35:43.852Z,99266.91
2022-09-20T07:36:45.196Z,99268.00
2022-09-20T07:37:46.666Z,99271.09
2022-09-20T07:38:49.022Z,99264.47
2022-09-20T07:39:50.600Z,99262.53
2022-09-20T07:40:59.584Z,99268.78
2022-09-20T07:42:01.020Z,99273.78
2022-09-20T07:43:02.446Z,99266.16
2022-09-20T07:44:03.816Z,99273.81
2022-09-20T07:45:05.903Z,99277.00
2022-09-20T07:46:07.310Z,99279.50
2022-09-20T07:47:09.288Z,99271.47
2022-09-20T07:48:10.658Z,99282.31
2022-09-20T07:49:12.042Z,99276.06
2022-09-20T07:50:13.342Z,99281.91
2022-09-20T07:51:14.830Z,99287.69
2022-09-20T07:52:16.297Z,99285.63
2022-09-20T07:53:17.726Z,99292.16
2022-09-20T07:54:20.067Z,99288.16
2022-09-20T07:55:21.462Z,99284.00
2022-09-20T07:56:22.789Z,99293.28
2022-09-20T07:57:24.225Z,99293.69
2022-09-20T07:58:25.766Z,99293.97
2022-09-20T07:59:27.209Z,99290.25
2022-09-20T08:00:28.599Z,99292.47
2022-09-20T08:01:30.137Z,99286.22
2022-09-20T08:02:31.593Z,99292.59
2022-09-20T08:03:34.207Z,99294.00
2022-09-20T08:04:35.619Z,99296.75
2022-09-20T08:05:36.965Z,99294.97
2022-09-20T08:06:44.667Z,99298.00
2022-09-20T08:07:46.126Z,99294.94
2022-09-20T08:08:47.941Z,99290.91
2022-09-20T08:09:49.443Z,99288.06
2022-09-20T08:10:50.875Z,99287.75
2022-09-20T08:11:52.459Z,99298.00
2022-09-20T08:14:17.586Z,99293.16
2022-09-20T08:15:19.279Z,99296.66
2022-09-20T08:16:21.025Z,99297.88
2022-09-20T08:17:22.532Z,99287.75
2022-09-20T08:18:23.941Z,99297.31
2022-09-20T08:19:25.285Z,99297.63
2022-09-20T08:20:26.756Z,99295.66
2022-09-20T08:21:31.666Z,99299.53
2022-09-20T08:22:33.102Z,99296.63
2022-09-20T08:23:38.190Z,99299.38
2022-09-20T08:24:39.649Z,99287.69
2022-09-20T08:25:41.068Z,99294.78
2022-09-20T08:26:43.002Z,99292.81
2022-09-20T08:27:44.402Z,99294.13
2022-09-20T08:28:46.935Z,99295.03
2022-09-20T08:29:48.312Z,99293.88
2022-09-20T08:30:49.678Z,99286.28
2022-09-20T08:31:51.219Z,99290.53
2022-09-20T08:32:52.651Z,99277.69
2022-09-20T08:33:54.150Z,99279.53
2022-09-20T08:34:55.559Z,99283.53
2022-09-20T08:35:57.840Z,99284.59
2022-09-20T08:36:59.383Z,99286.81
2022-09-20T08:40:44.952Z,99285.09
2022-09-20T08:42:08.071Z,99281.69
2022-09-20T08:43:10.906Z,99286.88
2022-09-20T08:44:24.432Z,99291.91
2022-09-20T08:45:34.934Z,99287.75
2022-09-20T08:46:41.627Z,99296.28
2022-09-20T08:48:00.185Z,99292.53
2022-09-20T08:49:05.536Z,99293.50
2022-09-20T08:50:09.999Z,99302.69
2022-09-20T08:51:14.142Z,99299.50
2022-09-20T08:52:19.730Z,99319.06
2022-09-20T08:53:21.608Z,99312.31
2022-09-20T08:54:23.832Z,99318.06
2022-09-20T08:55:28.823Z,99316.97
2022-09-20T08:56:35.892Z,99312.84
2022-09-20T08:57:37.325Z,99320.44
2022-09-20T08:58:38.771Z,99322.25
2022-09-20T08:59:40.155Z,99328.97
2022-09-20T09:00:46.081Z,99321.47
2022-09-20T09:01:48.528Z,99322.56
2022-09-20T09:02:53.971Z,99318.41
2022-09-20T09:04:02.329Z,99325.63
2022-09-20T09:05:16.019Z,99321.44
2022-09-20T09:06:20.413Z,99318.09
2022-09-20T09:07:23.646Z,99314.47
2022-09-20T09:08:29.213Z,99312.94
2022-09-20T09:09:37.613Z,99317.41
2022-09-20T09:10:43.421Z,99318.09
2022-09-20T09:11:46.254Z,99315.16
2022-09-20T09:12:49.061Z,99314.31
2022-09-20T09:13:53.562Z,99320.72
2022-09-20T09:15:02.328Z,99314.66
2022-09-20T09:16:12.352Z,99316.72
2022-09-20T09:17:16.682Z,99312.97
2022-09-20T09:18:18.150Z,99317.84
2022-09-20T09:19:34.418Z,99313.13
2022-09-20T09:20:41.819Z,99310.22
2022-09-20T09:21:43.375Z,99310.91
2022-09-20T09:22:46.199Z,99312.16
2022-09-20T09:24:04.447Z,99309.94
2022-09-20T09:25:14.680Z,99314.13
2022-09-20T09:26:19.559Z,99306.75
2022-09-20T09:27:20.962Z,99309.38
2022-09-20T09:28:26.301Z,99310.50
2022-09-20T09:29:31.680Z,99311.75
2022-09-20T09:30:38.956Z,99309.81
2022-09-20T09:31:40.511Z,99312.16
2022-09-20T09:32:41.981Z,99309.38
2022-09-20T09:33:44.250Z,99309.38
2022-09-20T09:34:45.686Z,99307.19
2022-09-20T09:36:07.270Z,99305.09
2022-09-20T09:37:26.429Z,99305.91
2022-09-20T09:38:36.661Z,99308.25
2022-09-20T09:39:38.216Z,99307.03
2022-09-20T09:40:50.348Z,99308.13
2022-09-20T09:41:52.126Z,99305.91
2022-09-20T09:42:56.507Z,99311.19
2022-09-20T09:44:22.048Z,99311.91
2022-09-20T09:45:27.336Z,99313.66
2022-09-20T09:46:33.821Z,99308.66
2022-09-20T09:47:37.239Z,99306.69
2022-09-20T09:48:40.270Z,99304.31
2022-09-20T09:50:00.175Z,99309.00
2022-09-20T09:51:29.623Z,99309.97
2022-09-20T09:52:31.191Z,99309.69
2022-09-20T09:53:32.987Z,99307.19
2022-09-20T09:54:37.994Z,99304.56
2022-09-20T09:56:02.559Z,99300.94
2022-09-20T09:57:28.562Z,99306.84
2022-09-20T09:58:44.896Z,99304.63
2022-09-20T10:00:16.766Z,99304.56
2022-09-20T10:01:33.673Z,99299.94
2022-09-20T10:02:53.010Z,99294.69
2022-09-20T10:04:10.567Z,99287.38
2022-09-20T10:05:28.952Z,99291.38
2022-09-20T10:06:52.101Z,99297.00
2022-09-20T10:07:59.486Z,99296.56
2022-09-20T10:09:25.634Z,99294.59
2022-09-20T10:11:11.377Z,99278.81
2022-09-20T10:12:39.359Z,99293.06
2022-09-20T10:14:16.191Z,99290.66
2022-09-20T10:15:35.391Z,99286.34
2022-09-20T10:17:07.768Z,99295.00
2022-09-20T10:18:27.745Z,99289.06
2022-09-20T10:19:49.860Z,99294.13
2022-09-20T10:20:57.162Z,99295.56
2022-09-20T10:22:12.768Z,99297.38
2022-09-20T10:23:58.568Z,99289.53
2022-09-20T10:25:01.391Z,99292.78
2022-09-20T10:26:36.667Z,99296.19
2022-09-20T10:27:51.426Z,99296.44
2022-09-20T10:29:19.749Z,99291.81
2022-09-20T10:30:25.179Z,99286.06
2022-09-20T10:31:50.775Z,99291.72
2022-09-20T10:33:18.299Z,99293.22
2022-09-20T10:34:42.253Z,99286.66
2022-09-20T10:36:20.347Z,99294.91
2022-09-20T10:37:27.607Z,99295.03
2022-09-20T10:38:43.229Z,99295.81
2022-09-20T10:39:48.159Z,99289.00
2022-09-20T10:41:12.583Z,99294.38
2022-09-20T10:42:45.363Z,99291.34
2022-09-20T10:44:05.876Z,99289.00
2022-09-20T10:45:53.638Z,99297.84
2022-09-20T10:46:58.957Z,99292.25
2022-09-20T10:48:18.703Z,99288.38
2022-09-20T10:49:34.598Z,99293.56
2022-09-20T10:50:48.190Z,99294.03
2022-09-20T10:52:14.354Z,99297.06
2022-09-20T10:53:30.444Z,99300.69
2022-09-20T10:55:09.381Z,99292.88
2022-09-20T10:56:29.213Z,99302.56
2022-09-20T10:57:51.391Z,99295.97
2022-09-20T10:59:25.013Z,99294.59
2022-09-20T11:00:44.966Z,99301.00
2022-09-20T11:02:24.293Z,99293.38
2022-09-20T11:03:34.569Z,99298.13
2022-09-20T11:05:09.451Z,99300.44
2022-09-20T11:06:45.999Z,99296.19
2022-09-20T11:07:47.359Z,99300.66
2022-09-20T11:08:52.409Z,99298.50
2022-09-20T11:10:07.574Z,99298.34
2022-09-20T11:11:15.578Z,99307.75
2022-09-20T11:12:28.788Z,99316.69
2022-09-20T11:13:38.795Z,99321.75
2022-09-20T11:14:57.132Z,99318.34
2022-09-20T11:16:06.814Z,99324.56
2022-09-20T11:17:32.777Z,99323.22
2022-09-20T11:18:41.132Z,99321.19
2022-09-20T11:20:07.825Z,99335.28
2022-09-20T11:21:25.493Z,99333.56
2022-09-20T11:22:55.560Z,99343.56
2022-09-20T11:24:02.938Z,99346.41
2022-09-20T11:25:18.011Z,99333.53
2022-09-20T11:26:26.610Z,99345.47
2022-09-20T11:27:51.636Z,99339.50
2022-09-20T11:29:01.647Z,99339.06
2022-09-20T11:30:06.454Z,99339.34
2022-09-20T11:31:13.896Z,99345.03
2022-09-20T11:32:20.895Z,99338.94
2022-09-20T11:33:39.257Z,99339.38
2022-09-20T11:34:53.400Z,99339.22
2022-09-20T11:36:01.279Z,99347.25
2022-09-20T11:37:02.769Z,99341.00
2022-09-20T11:38:35.010Z,99343.91
2022-09-20T11:39:44.653Z,99337.09
2022-09-20T11:40:52.509Z,99344.59
2022-09-20T11:41:57.433Z,99341.97
2022-09-20T11:43:01.886Z,99338.81
2022-09-20T11:44:11.838Z,99333.66
2022-09-20T11:45:13.539Z,99343.50
2022-09-20T11:46:40.856Z,99341.72
2022-09-20T11:47:55.826Z,99342.81
2022-09-20T11:49:15.574Z,99337.00
2022-09-20T11:50:49.986Z,99329.38
2022-09-20T11:52:06.723Z,99333.41
2022-09-20T11:53:43.227Z,99335.06
2022-09-20T11:55:17.505Z,99328.81
2022-09-20T11:56:22.436Z,99336.69
2022-09-20T11:57:25.117Z,99326.56
2022-09-20T11:58:26.587Z,99336.81
2022-09-20T11:59:40.804Z,99331.94
2022-09-20T12:00:46.379Z,99333.97
2022-09-20T12:01:47.853Z,99326.69
2022-09-20T12:02:54.246Z,99327.16
2022-09-20T12:04:20.964Z,99331.72
2022-09-20T12:05:32.940Z,99328.63
2022-09-20T12:06:37.894Z,99328.09
2022-09-20T12:07:41.060Z,99327.81
2022-09-20T12:08:42.563Z,99316.22
2022-09-20T12:09:51.247Z,99325.59
2022-09-20T12:11:14.400Z,99317.34
2022-09-20T12:12:28.060Z,99317.94
2022-09-20T12:13:31.729Z,99323.91
2022-09-20T12:14:33.217Z,99313.56
2022-09-20T12:15:37.226Z,99308.81
2022-09-20T12:16:43.333Z,99309.38
2022-09-20T12:17:47.822Z,99306.16
2022-09-20T12:18:52.010Z,99317.56
2022-09-20T12:19:53.559Z,99309.47
2022-09-20T12:20:54.911Z,99311.50
2022-09-20T12:21:59.226Z,99308.88
2022-09-20T12:23:37.918Z,99312.00
2022-09-20T12:24:44.578Z,99315.56
2022-09-20T12:26:02.543Z,99307.31
2022-09-20T12:27:28.634Z,99309.81
2022-09-20T12:28:38.866Z,99308.13
2022-09-20T12:29:46.092Z,99307.91
2022-09-20T12:30:47.594Z,99311.34
2022-09-20T12:31:50.693Z,99304.94
2022-09-20T12:32:56.433Z,99309.09
2022-09-20T12:34:10.134Z,99311.97
2022-09-20T12:35:36.622Z,99310.84
2022-09-20T12:36:53.239Z,99300.41
2022-09-20T12:37:54.783Z,99303.16
2022-09-20T12:39:16.252Z,99306.53
2022-09-20T12:40:20.699Z,99300.84
2022-09-20T12:41:28.264Z,99303.69
2022-09-20T12:42:33.866Z,99303.38
2022-09-20T12:43:46.742Z,99303.72
2022-09-20T12:44:50.954Z,99300.00
2022-09-20T12:45:59.949Z,99301.03
2022-09-20T12:47:15.375Z,99299.44
2022-09-20T12:48:19.352Z,99303.22
2022-09-20T12:49:29.761Z,99322.31
2022-09-20T12:50:31.221Z,99317.09
2022-09-20T12:51:33.641Z,99321.22
2022-09-20T12:52:34.998Z,99321.09
2022-09-20T12:53:36.379Z,99324.44
2022-09-20T12:54:51.223Z,99321.25
2022-09-20T12:56:01.900Z,99318.69
2022-09-20T12:57:18.039Z,99324.53
2022-09-20T12:58:25.849Z,99321.78
2022-09-20T12:59:27.509Z,99323.22
2022-09-20T13:00:42.244Z,99316.31
2022-09-20T13:01:43.797Z,99314.66
2022-09-20T13:02:51.344Z,99316.31
2022-09-20T13:03:52.820Z,99312.00
2022-09-20T13:04:55.445Z,99305.88
2022-09-20T13:06:06.255Z,99306.41
2022-09-20T13:07:32.418Z,99307.63
2022-09-20T13:08:52.074Z,99314.31
2022-09-20T13:09:54.466Z,99305.09
2022-09-20T13:11:13.929Z,99308.66
2022-09-20T13:12:15.742Z,99305.94
2022-09-20T13:13:31.687Z,99301.41
2022-09-20T13:14:33.810Z,99308.56
2022-09-20T13:15:35.496Z,99308.94
2022-09-20T13:16:45.033Z,99315.59
2022-09-20T13:17:49.771Z,99311.97
2022-09-20T13:19:02.362Z,99313.31
2022-09-20T13:20:04.175Z,99315.75
2022-09-20T13:21:07.760Z,99310.75
2022-09-20T13:22:14.711Z,99311.13
2022-09-20T13:23:21.611Z,99307.03
2022-09-20T13:24:25.582Z,99309.31
2022-09-20T13:25:28.075Z,99316.94
2022-09-20T13:26:33.966Z,99318.47
2022-09-20T13:27:38.991Z,99313.97
2022-09-20T13:28:49.366Z,99312.31
2022-09-20T13:29:50.780Z,99315.13
2022-09-20T13:31:12.095Z,99321.69
2022-09-20T13:32:25.522Z,99309.91
2022-09-20T13:33:26.925Z,99315.38
2022-09-20T13:34:28.272Z,99320.81
2022-09-20T13:35:29.758Z,99322.25
2022-09-20T13:36:31.228Z,99315.75
2022-09-20T13:37:33.902Z,99318.53
2022-09-20T13:38:36.933Z,99318.53
2022-09-20T13:39:38.476Z,99319.50
2022-09-20T13:40:45.063Z,99323.75
2022-09-20T13:41:46.520Z,99317.47
2022-09-20T13:42:50.216Z,99317.19
2022-09-20T13:43:51.643Z,99313.78
2022-09-20T13:44:53.179Z,99313.03
2022-09-20T13:45:59.932Z,99320.22
2022-09-20T13:47:01.598Z,99317.72
2022-09-20T13:48:03.051Z,99309.66
2022-09-20T13:49:19.013Z,99312.78
2022-09-20T13:50:26.273Z,99317.09
2022-09-20T13:51:28.548Z,99311.97
2022-09-20T13:52:31.490Z,99317.25
2022-09-20T13:53:41.609Z,99314.16
2022-09-20T13:54:43.394Z,99308.72
2022-09-20T13:55:45.602Z,99307.72
2022-09-20T13:56:48.231Z,99307.44
2022-09-20T13:57:49.921Z,99309.47
2022-09-20T13:58:52.138Z,99312.63
2022-09-20T13:59:54.866Z,99303.56
2022-09-20T14:01:00.459Z,99307.56
2022-09-20T14:02:03.104Z,99303.47
2022-09-20T14:03:04.851Z,99304.66
2022-09-20T14:04:16.024Z,99304.75
2022-09-20T14:05:19.910Z,99302.84
2022-09-20T14:06:25.167Z,99303.63
2022-09-20T14:07:27.355Z,99304.59
2022-09-20T14:08:35.820Z,99306.25
2022-09-20T14:09:39.037Z,99298.13
2022-09-20T14:10:40.477Z,99297.44
2022-09-20T14:11:42.229Z,99299.94
2022-09-20T14:12:44.791Z,99301.91